[ ตารางข้อมูล ] [ Min-Max ] [ วันนี้2 ] [ วันนี้4 ] [ เทียบ-A 3วัน ] [ เทียบ-B 4วัน ]   

วันนี้4   [ ◀ ช่วงเก่ากว่า ] [ ช่วงที่ 43 ] [ ช่วงใหม่กว่า ▶ ] [ ล่าสุด ]    [ 3 ชั่วโมง ] [ 6 ชั่วโมง ] [ 12 ชั่วโมง ] [ 24 ชั่วโมง ]   วันนี้4

อุณภูมิในตู้ Knockdown4529  ราย 24 ชั่วโมง  ที่วัดได้ ในช่วงวันเวลา 21/07/2026 (19:31) ถึง 22/07/2026 (19:31) 
ความชื้นในตู้ Knockdown4529  ราย 24 ชั่วโมง  ที่วัดได้ ในช่วงวันเวลา 21/07/2026 (19:31) ถึง 22/07/2026 (19:31) 
การใช้ไฟฟ้าในตู้ Knockdown4529  ราย 24 ชั่วโมง  ที่วัดได้ ในช่วงวันเวลา 21/07/2026 (19:31) ถึง 22/07/2026 (19:31) 

  DS18B20SHTC3PZEM-004TWiFi 
IDDate d/m/Y & Timedata1
สูง
data2
ต่ำ
data3
นอก
temp
pcb
hum
pcb
VoltAmpWattrssiTime
 5617  22/07/2026 19:30:31  32.8  32.6  31.2  33.7  65.2  229.0  0.04  4.6  -81  19:30 
 5616  22/07/2026 19:25:47  32.8  32.6  31.3  33.8  65.3  229.0  0.04  4.5  -79  19:25 
 5615  22/07/2026 19:21:05  32.8  32.6  31.4  34.0  65.4  228.9  0.04  4.6  -81  19:21 
 5614  22/07/2026 19:16:22  32.8  32.6  31.5  33.8  65.3  228.0  0.04  4.6  -82  19:16 
 5613  22/07/2026 19:11:36  32.8  32.6  31.6  33.8  65.2  230.3  0.04  4.5  -78  19:11 
 5612  22/07/2026 19:06:52  32.9  32.7  31.6  33.8  65.2  229.5  0.04  4.5  -81  19:06 
 5611  22/07/2026 19:02:09  32.9  32.7  31.6  33.8  65.2  226.9  0.04  4.6  -80  19:02 
 5610  22/07/2026 18:57:26  32.9  32.8  31.6  33.7  65.2  230.8  0.04  4.6  -79  18:57 
 5609  22/07/2026 18:52:43  32.9  32.8  31.6  34.0  65.1  230.7  0.04  4.5  -79  18:52 
 5608  22/07/2026 18:48:00  33.0  32.8  31.5  34.1  64.9  231.0  0.04  4.5  -78  18:48 
 5607  22/07/2026 18:43:17  33.1  32.8  31.4  34.1  64.7  230.8  0.04  4.5  -78  18:43 
 5606  22/07/2026 18:38:34  33.1  32.8  31.5  34.1  64.5  230.4  0.04  4.6  -79  18:38 
 5605  22/07/2026 18:33:50  33.2  32.8  31.7  34.1  64.6  231.1  0.04  4.6  -80  18:33 
 5604  22/07/2026 18:29:07  33.2  32.8  31.7  34.3  64.5  231.8  0.04  4.5  -79  18:29 
 5603  22/07/2026 18:24:24  33.3  32.8  31.7  34.3  64.6  232.1  0.04  4.5  -78  18:24 
 5602  22/07/2026 18:19:41  33.4  32.9  31.8  34.2  64.5  232.6  0.04  4.5  -77  18:19 
 5601  22/07/2026 18:14:58  33.4  32.9  31.9  34.2  64.4  232.6  0.04  4.5  -80  18:14 
 5600  22/07/2026 18:10:15  33.4  32.9  31.8  34.3  64.5  232.4  0.04  4.5  -81  18:10 
 5599  22/07/2026 18:05:32  33.4  32.9  31.8  34.4  64.5  232.2  0.04  4.5  -80  18:05 
 5598  22/07/2026 18:00:49  33.4  33.0  31.9  34.4  64.3  232.7  0.04  4.5  -84  18:00 
 5597  22/07/2026 17:56:06  33.5  33.0  31.9  34.6  64.3  233.3  0.04  4.5  -81  17:56 
 5596  22/07/2026 17:51:22  33.5  33.0  31.9  34.6  64.4  232.5  0.04  4.5  -82  17:51 
 5595  22/07/2026 17:46:39  33.6  33.1  31.9  34.6  64.1  232.9  0.04  4.5  -81  17:46 
 5594  22/07/2026 17:41:56  33.6  33.1  31.9  34.6  64.1  232.4  0.04  4.5  -82  17:41 

Data every 5 minute.


ใช้เวลาประมวลผล 0.02080 วินาที